Jackson Center, Ohio
Current Conditions -  °F | °C
As of 1:10 PM on Thursday 27 Nov 2014 (Local Time) from KEDJ Reporting Station
Overcast Overcast  
Wind Chill: 24°   Ceiling: 3000
Heat Index: 32°   Visibility: 10mi
Dew Point: 19°   Wind: 9mph
Humidity: 60%   Direction: 290°WNW
Pressure: 30.2"   Gusts: 20mph
Location:  40.44°N, 84.04°W
Report Text: KEDJ 271810Z AUTO 29008G17KT 10SM OVC030 00/M07 A3020 RMK AO1
Loading
Personal Weather Stations






























Interactive Weather Map New forecast layout! Learn more

10-Day Weather Forecast

Advertisements
Track Severe Weather on mobile